sensor_id;sensor_type;location;lat;lon;timestamp;temperature;humidity
66522;SHT31;53349;53.538;8.584;2023-06-22T00:00:59;20.72;66.06
66522;SHT31;53349;53.538;8.584;2023-06-22T00:03:25;20.76;65.93
66522;SHT31;53349;53.538;8.584;2023-06-22T00:05:52;20.76;65.78
66522;SHT31;53349;53.538;8.584;2023-06-22T00:08:20;20.73;65.77
66522;SHT31;53349;53.538;8.584;2023-06-22T00:10:46;20.78;65.71
66522;SHT31;53349;53.538;8.584;2023-06-22T00:13:13;20.78;65.43
66522;SHT31;53349;53.538;8.584;2023-06-22T00:15:40;20.80;65.37
66522;SHT31;53349;53.538;8.584;2023-06-22T00:18:07;20.82;65.44
66522;SHT31;53349;53.538;8.584;2023-06-22T00:20:33;20.79;65.44
66522;SHT31;53349;53.538;8.584;2023-06-22T00:22:59;20.79;65.39
66522;SHT31;53349;53.538;8.584;2023-06-22T00:25:25;20.79;65.30
66522;SHT31;53349;53.538;8.584;2023-06-22T00:27:52;20.83;65.06
66522;SHT31;53349;53.538;8.584;2023-06-22T00:30:18;20.79;65.15
66522;SHT31;53349;53.538;8.584;2023-06-22T00:32:45;20.78;65.19
66522;SHT31;53349;53.538;8.584;2023-06-22T00:35:15;20.73;65.24
66522;SHT31;53349;53.538;8.584;2023-06-22T00:37:45;20.71;65.40
66522;SHT31;53349;53.538;8.584;2023-06-22T00:40:17;20.72;65.37
66522;SHT31;53349;53.538;8.584;2023-06-22T00:42:42;20.71;65.27
66522;SHT31;53349;53.538;8.584;2023-06-22T00:45:08;20.66;65.11
66522;SHT31;53349;53.538;8.584;2023-06-22T00:47:34;20.69;65.07
66522;SHT31;53349;53.538;8.584;2023-06-22T00:50:00;20.66;65.23
66522;SHT31;53349;53.538;8.584;2023-06-22T00:52:27;20.64;65.48
66522;SHT31;53349;53.538;8.584;2023-06-22T00:54:53;20.65;65.48
66522;SHT31;53349;53.538;8.584;2023-06-22T00:57:20;20.66;65.53
66522;SHT31;53349;53.538;8.584;2023-06-22T00:59:47;20.64;65.62
66522;SHT31;53349;53.538;8.584;2023-06-22T01:02:15;20.69;65.60
66522;SHT31;53349;53.538;8.584;2023-06-22T01:04:43;20.68;65.52
66522;SHT31;53349;53.538;8.584;2023-06-22T01:07:31;20.64;65.55
66522;SHT31;53349;53.538;8.584;2023-06-22T01:10:14;20.61;65.59
66522;SHT31;53349;53.538;8.584;2023-06-22T01:15:46;20.66;65.77
66522;SHT31;53349;53.538;8.584;2023-06-22T01:18:17;20.66;65.99
66522;SHT31;53349;53.538;8.584;2023-06-22T01:20:46;20.65;66.06
66522;SHT31;53349;53.538;8.584;2023-06-22T01:26:42;20.68;66.17
66522;SHT31;53349;53.538;8.584;2023-06-22T01:29:10;20.65;66.42
66522;SHT31;53349;53.538;8.584;2023-06-22T01:31:36;20.61;66.52
66522;SHT31;53349;53.538;8.584;2023-06-22T01:34:03;20.62;66.58
66522;SHT31;53349;53.538;8.584;2023-06-22T01:36:30;20.59;66.59
66522;SHT31;53349;53.538;8.584;2023-06-22T01:38:57;20.53;66.66
66522;SHT31;53349;53.538;8.584;2023-06-22T01:41:27;20.51;66.63
66522;SHT31;53349;53.538;8.584;2023-06-22T01:43:54;20.53;66.49
66522;SHT31;53349;53.538;8.584;2023-06-22T01:46:23;20.53;66.35
66522;SHT31;53349;53.538;8.584;2023-06-22T01:48:50;20.44;66.39
66522;SHT31;53349;53.538;8.584;2023-06-22T01:51:15;20.41;66.55
66522;SHT31;53349;53.538;8.584;2023-06-22T01:53:41;20.39;66.57
66522;SHT31;53349;53.538;8.584;2023-06-22T01:56:08;20.35;66.56
66522;SHT31;53349;53.538;8.584;2023-06-22T01:58:41;20.27;66.79
66522;SHT31;53349;53.538;8.584;2023-06-22T02:01:20;20.20;66.82
66522;SHT31;53349;53.538;8.584;2023-06-22T02:03:56;20.11;67.12
66522;SHT31;53349;53.538;8.584;2023-06-22T02:06:36;20.10;67.05
66522;SHT31;53349;53.538;8.584;2023-06-22T02:09:02;20.04;67.09
66522;SHT31;53349;53.538;8.584;2023-06-22T02:11:31;19.98;67.30
66522;SHT31;53349;53.538;8.584;2023-06-22T02:13:59;19.96;67.50
66522;SHT31;53349;53.538;8.584;2023-06-22T02:16:26;19.88;67.81
66522;SHT31;53349;53.538;8.584;2023-06-22T02:18:53;19.87;67.79
66522;SHT31;53349;53.538;8.584;2023-06-22T02:21:19;19.80;68.04
66522;SHT31;53349;53.538;8.584;2023-06-22T02:23:46;19.77;68.02
66522;SHT31;53349;53.538;8.584;2023-06-22T02:26:12;19.76;68.02
66522;SHT31;53349;53.538;8.584;2023-06-22T02:28:38;19.74;68.08
66522;SHT31;53349;53.538;8.584;2023-06-22T02:31:03;19.76;68.02
66522;SHT31;53349;53.538;8.584;2023-06-22T02:33:30;19.78;67.93
66522;SHT31;53349;53.538;8.584;2023-06-22T02:35:55;19.78;67.81
66522;SHT31;53349;53.538;8.584;2023-06-22T02:38:21;19.78;67.83
66522;SHT31;53349;53.538;8.584;2023-06-22T02:40:48;19.66;68.16
66522;SHT31;53349;53.538;8.584;2023-06-22T02:43:15;19.60;68.32
66522;SHT31;53349;53.538;8.584;2023-06-22T02:45:40;19.53;68.53
66522;SHT31;53349;53.538;8.584;2023-06-22T02:48:06;19.55;68.49
66522;SHT31;53349;53.538;8.584;2023-06-22T02:50:32;19.40;68.70
66522;SHT31;53349;53.538;8.584;2023-06-22T02:52:58;19.45;68.64
66522;SHT31;53349;53.538;8.584;2023-06-22T02:55:26;19.36;68.79
66522;SHT31;53349;53.538;8.584;2023-06-22T02:57:51;19.39;68.78
66522;SHT31;53349;53.538;8.584;2023-06-22T03:00:19;19.39;68.78
66522;SHT31;53349;53.538;8.584;2023-06-22T03:02:49;19.42;68.56
66522;SHT31;53349;53.538;8.584;2023-06-22T03:05:17;19.42;68.61
66522;SHT31;53349;53.538;8.584;2023-06-22T03:07:44;19.33;68.78
66522;SHT31;53349;53.538;8.584;2023-06-22T03:10:12;19.26;68.98
66522;SHT31;53349;53.538;8.584;2023-06-22T03:12:45;19.22;69.12
66522;SHT31;53349;53.538;8.584;2023-06-22T03:15:12;19.15;69.16
66522;SHT31;53349;53.538;8.584;2023-06-22T03:17:39;19.19;69.09
66522;SHT31;53349;53.538;8.584;2023-06-22T03:20:07;19.23;68.93
66522;SHT31;53349;53.538;8.584;2023-06-22T03:22:39;19.25;69.02
66522;SHT31;53349;53.538;8.584;2023-06-22T03:25:07;19.28;68.87
66522;SHT31;53349;53.538;8.584;2023-06-22T03:27:33;19.28;68.79
66522;SHT31;53349;53.538;8.584;2023-06-22T03:29:59;19.25;68.98
66522;SHT31;53349;53.538;8.584;2023-06-22T03:32:25;19.23;69.13
66522;SHT31;53349;53.538;8.584;2023-06-22T03:34:50;19.26;69.03
66522;SHT31;53349;53.538;8.584;2023-06-22T03:37:16;19.32;68.89
66522;SHT31;53349;53.538;8.584;2023-06-22T03:39:43;19.36;68.85
66522;SHT31;53349;53.538;8.584;2023-06-22T03:42:10;19.30;68.93
66522;SHT31;53349;53.538;8.584;2023-06-22T03:44:35;19.35;68.86
66522;SHT31;53349;53.538;8.584;2023-06-22T03:47:01;19.32;68.92
66522;SHT31;53349;53.538;8.584;2023-06-22T03:49:26;19.39;68.72
66522;SHT31;53349;53.538;8.584;2023-06-22T03:51:52;19.38;68.58
66522;SHT31;53349;53.538;8.584;2023-06-22T03:54:18;19.43;68.57
66522;SHT31;53349;53.538;8.584;2023-06-22T03:56:44;19.43;68.31
66522;SHT31;53349;53.538;8.584;2023-06-22T03:59:11;19.50;68.26
66522;SHT31;53349;53.538;8.584;2023-06-22T04:01:37;19.53;68.28
66522;SHT31;53349;53.538;8.584;2023-06-22T04:04:05;19.56;68.13
66522;SHT31;53349;53.538;8.584;2023-06-22T04:06:31;19.52;68.15
66522;SHT31;53349;53.538;8.584;2023-06-22T04:08:56;19.56;68.12
66522;SHT31;53349;53.538;8.584;2023-06-22T04:11:25;19.59;68.14
66522;SHT31;53349;53.538;8.584;2023-06-22T04:13:51;19.66;67.82
66522;SHT31;53349;53.538;8.584;2023-06-22T04:16:18;19.77;67.47
66522;SHT31;53349;53.538;8.584;2023-06-22T04:18:44;19.91;66.88
66522;SHT31;53349;53.538;8.584;2023-06-22T04:21:18;20.01;66.72
66522;SHT31;53349;53.538;8.584;2023-06-22T04:23:46;20.04;66.47
66522;SHT31;53349;53.538;8.584;2023-06-22T04:26:17;20.06;66.32
66522;SHT31;53349;53.538;8.584;2023-06-22T04:28:44;20.16;66.12
66522;SHT31;53349;53.538;8.584;2023-06-22T04:31:11;20.14;65.57
66522;SHT31;53349;53.538;8.584;2023-06-22T04:33:36;20.11;65.58
66522;SHT31;53349;53.538;8.584;2023-06-22T04:36:01;20.07;65.83
66522;SHT31;53349;53.538;8.584;2023-06-22T04:38:27;20.16;65.73
66522;SHT31;53349;53.538;8.584;2023-06-22T04:40:52;20.27;65.55
66522;SHT31;53349;53.538;8.584;2023-06-22T04:43:17;20.32;65.34
66522;SHT31;53349;53.538;8.584;2023-06-22T04:45:43;20.32;65.21
66522;SHT31;53349;53.538;8.584;2023-06-22T04:48:09;20.42;64.93
66522;SHT31;53349;53.538;8.584;2023-06-22T04:50:37;20.47;64.93
66522;SHT31;53349;53.538;8.584;2023-06-22T04:53:03;20.49;64.86
66522;SHT31;53349;53.538;8.584;2023-06-22T04:55:29;20.44;64.63
66522;SHT31;53349;53.538;8.584;2023-06-22T04:57:57;20.45;64.50
66522;SHT31;53349;53.538;8.584;2023-06-22T05:00:23;20.35;64.37
66522;SHT31;53349;53.538;8.584;2023-06-22T05:02:50;20.29;64.52
66522;SHT31;53349;53.538;8.584;2023-06-22T05:05:18;20.29;64.70
66522;SHT31;53349;53.538;8.584;2023-06-22T05:07:50;20.35;64.65
66522;SHT31;53349;53.538;8.584;2023-06-22T05:10:16;20.41;64.49
66522;SHT31;53349;53.538;8.584;2023-06-22T05:12:42;20.38;64.49
66522;SHT31;53349;53.538;8.584;2023-06-22T05:15:08;20.42;64.70
66522;SHT31;53349;53.538;8.584;2023-06-22T05:17:36;20.55;64.55
66522;SHT31;53349;53.538;8.584;2023-06-22T05:20:02;20.52;64.77
66522;SHT31;53349;53.538;8.584;2023-06-22T05:22:28;20.51;64.88
66522;SHT31;53349;53.538;8.584;2023-06-22T05:24:54;20.51;65.23
66522;SHT31;53349;53.538;8.584;2023-06-22T05:27:19;20.66;65.09
66522;SHT31;53349;53.538;8.584;2023-06-22T05:29:45;20.72;64.96
66522;SHT31;53349;53.538;8.584;2023-06-22T05:32:12;20.92;64.82
66522;SHT31;53349;53.538;8.584;2023-06-22T05:34:38;21.11;64.41
66522;SHT31;53349;53.538;8.584;2023-06-22T05:37:04;21.20;64.07
66522;SHT31;53349;53.538;8.584;2023-06-22T05:39:29;21.34;63.71
66522;SHT31;53349;53.538;8.584;2023-06-22T05:41:56;21.59;62.87
66522;SHT31;53349;53.538;8.584;2023-06-22T05:44:22;21.64;62.20
66522;SHT31;53349;53.538;8.584;2023-06-22T05:46:52;21.75;61.83
66522;SHT31;53349;53.538;8.584;2023-06-22T05:49:18;21.79;61.32
66522;SHT31;53349;53.538;8.584;2023-06-22T05:51:44;21.91;61.07
66522;SHT31;53349;53.538;8.584;2023-06-22T05:54:10;22.04;60.72
66522;SHT31;53349;53.538;8.584;2023-06-22T05:56:37;22.26;60.43
66522;SHT31;53349;53.538;8.584;2023-06-22T05:59:04;22.53;59.54
66522;SHT31;53349;53.538;8.584;2023-06-22T06:01:29;22.78;58.73
66522;SHT31;53349;53.538;8.584;2023-06-22T06:03:54;23.21;57.65
66522;SHT31;53349;53.538;8.584;2023-06-22T06:06:21;23.45;57.26
66522;SHT31;53349;53.538;8.584;2023-06-22T06:08:47;23.73;56.62
66522;SHT31;53349;53.538;8.584;2023-06-22T06:11:12;23.87;56.20
66522;SHT31;53349;53.538;8.584;2023-06-22T06:13:37;23.75;56.58
66522;SHT31;53349;53.538;8.584;2023-06-22T06:16:03;23.52;56.85
66522;SHT31;53349;53.538;8.584;2023-06-22T06:18:29;23.39;57.49
66522;SHT31;53349;53.538;8.584;2023-06-22T06:20:56;23.48;57.76
66522;SHT31;53349;53.538;8.584;2023-06-22T06:23:21;23.56;57.92
66522;SHT31;53349;53.538;8.584;2023-06-22T06:25:47;23.48;58.47
66522;SHT31;53349;53.538;8.584;2023-06-22T06:28:12;23.54;58.67
66522;SHT31;53349;53.538;8.584;2023-06-22T06:30:37;23.42;59.22
66522;SHT31;53349;53.538;8.584;2023-06-22T06:33:03;23.32;59.70
66522;SHT31;53349;53.538;8.584;2023-06-22T06:35:28;23.31;59.98
66522;SHT31;53349;53.538;8.584;2023-06-22T06:37:55;23.25;60.10
66522;SHT31;53349;53.538;8.584;2023-06-22T06:40:21;23.22;60.24
66522;SHT31;53349;53.538;8.584;2023-06-22T06:42:48;23.06;60.50
66522;SHT31;53349;53.538;8.584;2023-06-22T06:45:19;23.25;60.37
66522;SHT31;53349;53.538;8.584;2023-06-22T06:47:47;23.76;58.87
66522;SHT31;53349;53.538;8.584;2023-06-22T06:50:12;24.30;57.90
66522;SHT31;53349;53.538;8.584;2023-06-22T06:52:38;24.87;56.41
66522;SHT31;53349;53.538;8.584;2023-06-22T06:55:05;25.26;53.49
66522;SHT31;53349;53.538;8.584;2023-06-22T06:57:32;25.23;51.67
66522;SHT31;53349;53.538;8.584;2023-06-22T06:59:59;25.40;51.36
66522;SHT31;53349;53.538;8.584;2023-06-22T07:02:26;25.54;50.56
66522;SHT31;53349;53.538;8.584;2023-06-22T07:04:52;25.76;50.40
66522;SHT31;53349;53.538;8.584;2023-06-22T07:07:22;26.07;49.46
66522;SHT31;53349;53.538;8.584;2023-06-22T07:09:48;25.94;51.67
66522;SHT31;53349;53.538;8.584;2023-06-22T07:12:17;25.97;52.11
66522;SHT31;53349;53.538;8.584;2023-06-22T07:14:42;25.90;52.18
66522;SHT31;53349;53.538;8.584;2023-06-22T07:17:09;26.02;50.37
66522;SHT31;53349;53.538;8.584;2023-06-22T07:19:37;26.39;49.62
66522;SHT31;53349;53.538;8.584;2023-06-22T07:22:03;26.60;49.87
66522;SHT31;53349;53.538;8.584;2023-06-22T07:24:29;26.85;49.38
66522;SHT31;53349;53.538;8.584;2023-06-22T07:26:55;26.95;49.40
66522;SHT31;53349;53.538;8.584;2023-06-22T07:29:20;27.07;49.11
66522;SHT31;53349;53.538;8.584;2023-06-22T07:31:46;27.31;48.93
66522;SHT31;53349;53.538;8.584;2023-06-22T07:34:13;27.50;48.51
66522;SHT31;53349;53.538;8.584;2023-06-22T07:36:38;27.64;48.18
66522;SHT31;53349;53.538;8.584;2023-06-22T07:39:04;27.62;47.88
66522;SHT31;53349;53.538;8.584;2023-06-22T07:41:33;27.78;47.55
66522;SHT31;53349;53.538;8.584;2023-06-22T07:43:58;27.77;47.89
66522;SHT31;53349;53.538;8.584;2023-06-22T07:46:23;27.75;47.06
66522;SHT31;53349;53.538;8.584;2023-06-22T07:48:56;27.78;47.01
66522;SHT31;53349;53.538;8.584;2023-06-22T07:51:22;27.84;46.42
66522;SHT31;53349;53.538;8.584;2023-06-22T07:53:50;27.92;46.49
66522;SHT31;53349;53.538;8.584;2023-06-22T07:56:19;27.92;46.29
66522;SHT31;53349;53.538;8.584;2023-06-22T07:58:48;27.82;46.47
66522;SHT31;53349;53.538;8.584;2023-06-22T08:01:14;28.01;45.40
66522;SHT31;53349;53.538;8.584;2023-06-22T08:03:40;27.89;45.11
66522;SHT31;53349;53.538;8.584;2023-06-22T08:06:07;27.91;45.44
66522;SHT31;53349;53.538;8.584;2023-06-22T08:08:32;27.84;45.68
66522;SHT31;53349;53.538;8.584;2023-06-22T08:11:00;27.68;45.73
66522;SHT31;53349;53.538;8.584;2023-06-22T08:13:25;27.64;46.02
66522;SHT31;53349;53.538;8.584;2023-06-22T08:15:50;27.67;46.06
66522;SHT31;53349;53.538;8.584;2023-06-22T08:18:20;27.59;45.01
66522;SHT31;53349;53.538;8.584;2023-06-22T08:20:48;27.41;45.49
66522;SHT31;53349;53.538;8.584;2023-06-22T08:23:15;27.33;45.82
66522;SHT31;53349;53.538;8.584;2023-06-22T08:25:40;27.41;45.80
66522;SHT31;53349;53.538;8.584;2023-06-22T08:28:08;27.27;45.44
66522;SHT31;53349;53.538;8.584;2023-06-22T08:30:37;27.16;45.97
66522;SHT31;53349;53.538;8.584;2023-06-22T08:33:02;27.30;45.62
66522;SHT31;53349;53.538;8.584;2023-06-22T08:35:27;27.29;45.92
66522;SHT31;53349;53.538;8.584;2023-06-22T08:37:53;27.26;45.87
66522;SHT31;53349;53.538;8.584;2023-06-22T08:40:22;27.36;45.44
66522;SHT31;53349;53.538;8.584;2023-06-22T08:42:48;27.31;45.88
66522;SHT31;53349;53.538;8.584;2023-06-22T08:45:15;27.53;45.58
66522;SHT31;53349;53.538;8.584;2023-06-22T08:47:41;27.62;45.36
66522;SHT31;53349;53.538;8.584;2023-06-22T08:50:09;27.62;45.33
66522;SHT31;53349;53.538;8.584;2023-06-22T08:52:37;27.81;44.86
66522;SHT31;53349;53.538;8.584;2023-06-22T08:55:03;27.77;44.94
66522;SHT31;53349;53.538;8.584;2023-06-22T08:57:34;28.08;44.12
66522;SHT31;53349;53.538;8.584;2023-06-22T08:59:59;28.32;43.64
66522;SHT31;53349;53.538;8.584;2023-06-22T09:02:26;28.36;42.70
66522;SHT31;53349;53.538;8.584;2023-06-22T09:04:53;28.57;42.79
66522;SHT31;53349;53.538;8.584;2023-06-22T09:07:18;28.73;42.51
66522;SHT31;53349;53.538;8.584;2023-06-22T09:09:44;28.76;41.57
66522;SHT31;53349;53.538;8.584;2023-06-22T09:12:11;28.74;41.58
66522;SHT31;53349;53.538;8.584;2023-06-22T09:14:37;28.91;42.09
66522;SHT31;53349;53.538;8.584;2023-06-22T09:17:04;29.04;41.97
66522;SHT31;53349;53.538;8.584;2023-06-22T09:19:30;29.18;41.44
66522;SHT31;53349;53.538;8.584;2023-06-22T09:21:56;29.22;40.93
66522;SHT31;53349;53.538;8.584;2023-06-22T09:24:21;29.07;41.67
66522;SHT31;53349;53.538;8.584;2023-06-22T09:26:51;29.17;41.79
66522;SHT31;53349;53.538;8.584;2023-06-22T09:29:17;29.31;41.54
66522;SHT31;53349;53.538;8.584;2023-06-22T09:31:43;29.24;41.43
66522;SHT31;53349;53.538;8.584;2023-06-22T09:34:10;29.51;41.50
66522;SHT31;53349;53.538;8.584;2023-06-22T09:36:35;29.73;41.22
66522;SHT31;53349;53.538;8.584;2023-06-22T09:39:01;29.66;41.38
66522;SHT31;53349;53.538;8.584;2023-06-22T09:41:31;29.86;40.97
66522;SHT31;53349;53.538;8.584;2023-06-22T09:43:59;29.79;40.74
66522;SHT31;53349;53.538;8.584;2023-06-22T09:46:25;29.90;40.50
66522;SHT31;53349;53.538;8.584;2023-06-22T09:48:51;29.90;40.64
66522;SHT31;53349;53.538;8.584;2023-06-22T09:51:16;29.79;40.57
66522;SHT31;53349;53.538;8.584;2023-06-22T09:53:41;29.86;40.62
66522;SHT31;53349;53.538;8.584;2023-06-22T09:56:09;29.83;40.85
66522;SHT31;53349;53.538;8.584;2023-06-22T09:58:35;29.96;41.05
66522;SHT31;53349;53.538;8.584;2023-06-22T10:01:01;29.80;40.82
66522;SHT31;53349;53.538;8.584;2023-06-22T10:03:26;30.13;40.13
66522;SHT31;53349;53.538;8.584;2023-06-22T10:05:51;30.27;40.22
66522;SHT31;53349;53.538;8.584;2023-06-22T10:08:23;30.30;40.78
66522;SHT31;53349;53.538;8.584;2023-06-22T10:10:51;30.30;40.41
66522;SHT31;53349;53.538;8.584;2023-06-22T10:13:16;30.27;40.32
66522;SHT31;53349;53.538;8.584;2023-06-22T10:15:42;30.27;40.25
66522;SHT31;53349;53.538;8.584;2023-06-22T10:18:08;30.47;40.50
66522;SHT31;53349;53.538;8.584;2023-06-22T10:20:34;30.63;39.68
66522;SHT31;53349;53.538;8.584;2023-06-22T10:23:01;30.48;39.58
66522;SHT31;53349;53.538;8.584;2023-06-22T10:25:28;30.67;40.00
66522;SHT31;53349;53.538;8.584;2023-06-22T10:27:53;30.58;39.04
66522;SHT31;53349;53.538;8.584;2023-06-22T10:30:19;30.54;38.62
66522;SHT31;53349;53.538;8.584;2023-06-22T10:32:45;30.37;39.35
66522;SHT31;53349;53.538;8.584;2023-06-22T10:35:10;30.38;39.36
66522;SHT31;53349;53.538;8.584;2023-06-22T10:37:37;30.37;39.31
66522;SHT31;53349;53.538;8.584;2023-06-22T10:40:06;30.27;39.61
66522;SHT31;53349;53.538;8.584;2023-06-22T10:42:32;30.23;38.99
66522;SHT31;53349;53.538;8.584;2023-06-22T10:44:57;30.17;39.69
66522;SHT31;53349;53.538;8.584;2023-06-22T10:47:25;30.10;40.07
66522;SHT31;53349;53.538;8.584;2023-06-22T10:49:53;30.21;39.54
66522;SHT31;53349;53.538;8.584;2023-06-22T10:52:18;30.30;39.44
66522;SHT31;53349;53.538;8.584;2023-06-22T10:54:43;30.09;39.74
66522;SHT31;53349;53.538;8.584;2023-06-22T10:57:09;29.97;40.29
66522;SHT31;53349;53.538;8.584;2023-06-22T10:59:35;30.02;40.29
66522;SHT31;53349;53.538;8.584;2023-06-22T11:02:01;30.13;40.39
66522;SHT31;53349;53.538;8.584;2023-06-22T11:04:26;29.99;40.28
66522;SHT31;53349;53.538;8.584;2023-06-22T11:06:51;29.83;40.58
66522;SHT31;53349;53.538;8.584;2023-06-22T11:09:16;29.86;40.81
66522;SHT31;53349;53.538;8.584;2023-06-22T11:11:43;29.80;40.44
66522;SHT31;53349;53.538;8.584;2023-06-22T11:14:09;29.86;40.54
66522;SHT31;53349;53.538;8.584;2023-06-22T11:16:35;29.87;40.31
66522;SHT31;53349;53.538;8.584;2023-06-22T11:19:04;29.87;40.42
66522;SHT31;53349;53.538;8.584;2023-06-22T11:21:30;29.87;40.32
66522;SHT31;53349;53.538;8.584;2023-06-22T11:23:56;29.77;41.41
66522;SHT31;53349;53.538;8.584;2023-06-22T11:26:22;29.80;41.12
66522;SHT31;53349;53.538;8.584;2023-06-22T11:28:47;29.89;40.67
66522;SHT31;53349;53.538;8.584;2023-06-22T11:31:12;29.96;40.73
66522;SHT31;53349;53.538;8.584;2023-06-22T11:33:38;29.96;40.67
66522;SHT31;53349;53.538;8.584;2023-06-22T11:36:03;29.96;40.71
66522;SHT31;53349;53.538;8.584;2023-06-22T11:38:30;29.87;41.04
66522;SHT31;53349;53.538;8.584;2023-06-22T11:40:55;29.97;40.95
66522;SHT31;53349;53.538;8.584;2023-06-22T11:43:21;29.95;41.22
66522;SHT31;53349;53.538;8.584;2023-06-22T11:45:46;29.76;41.81
66522;SHT31;53349;53.538;8.584;2023-06-22T11:48:11;29.83;41.09
66522;SHT31;53349;53.538;8.584;2023-06-22T11:50:36;29.73;41.42
66522;SHT31;53349;53.538;8.584;2023-06-22T11:53:04;29.65;41.49
66522;SHT31;53349;53.538;8.584;2023-06-22T11:55:29;29.42;41.98
66522;SHT31;53349;53.538;8.584;2023-06-22T11:57:55;29.35;41.92
66522;SHT31;53349;53.538;8.584;2023-06-22T12:00:22;29.48;41.69
66522;SHT31;53349;53.538;8.584;2023-06-22T12:02:49;29.32;42.23
66522;SHT31;53349;53.538;8.584;2023-06-22T12:05:20;29.21;42.39
66522;SHT31;53349;53.538;8.584;2023-06-22T12:07:47;29.31;42.51
66522;SHT31;53349;53.538;8.584;2023-06-22T12:10:12;29.27;42.83
66522;SHT31;53349;53.538;8.584;2023-06-22T12:12:38;29.25;42.87
66522;SHT31;53349;53.538;8.584;2023-06-22T12:15:06;29.08;42.82
66522;SHT31;53349;53.538;8.584;2023-06-22T12:17:34;28.97;43.01
66522;SHT31;53349;53.538;8.584;2023-06-22T12:20:12;28.94;43.12
66522;SHT31;53349;53.538;8.584;2023-06-22T12:22:41;28.98;43.26
66522;SHT31;53349;53.538;8.584;2023-06-22T12:25:10;28.94;43.21
66522;SHT31;53349;53.538;8.584;2023-06-22T12:27:40;29.00;43.19
66522;SHT31;53349;53.538;8.584;2023-06-22T12:30:08;28.98;43.23
66522;SHT31;53349;53.538;8.584;2023-06-22T12:32:34;28.98;43.20
66522;SHT31;53349;53.538;8.584;2023-06-22T12:35:00;28.91;43.17
66522;SHT31;53349;53.538;8.584;2023-06-22T12:37:25;28.81;43.63
66522;SHT31;53349;53.538;8.584;2023-06-22T12:39:55;28.81;43.43
66522;SHT31;53349;53.538;8.584;2023-06-22T12:42:22;28.91;43.61
66522;SHT31;53349;53.538;8.584;2023-06-22T12:44:48;28.97;43.48
66522;SHT31;53349;53.538;8.584;2023-06-22T12:47:16;28.90;43.50
66522;SHT31;53349;53.538;8.584;2023-06-22T12:49:41;28.91;43.39
66522;SHT31;53349;53.538;8.584;2023-06-22T12:52:09;28.93;43.31
66522;SHT31;53349;53.538;8.584;2023-06-22T12:54:36;29.03;43.08
66522;SHT31;53349;53.538;8.584;2023-06-22T12:57:03;29.00;43.68
66522;SHT31;53349;53.538;8.584;2023-06-22T12:59:28;28.90;43.59
66522;SHT31;53349;53.538;8.584;2023-06-22T13:01:53;28.98;43.69
66522;SHT31;53349;53.538;8.584;2023-06-22T13:04:19;28.81;43.82
66522;SHT31;53349;53.538;8.584;2023-06-22T13:06:47;28.70;43.68
66522;SHT31;53349;53.538;8.584;2023-06-22T13:09:15;28.70;43.87
66522;SHT31;53349;53.538;8.584;2023-06-22T13:11:42;28.57;43.84
66522;SHT31;53349;53.538;8.584;2023-06-22T13:14:08;28.50;44.01
66522;SHT31;53349;53.538;8.584;2023-06-22T13:16:35;28.53;43.98
66522;SHT31;53349;53.538;8.584;2023-06-22T13:19:02;28.59;44.10
66522;SHT31;53349;53.538;8.584;2023-06-22T13:21:30;28.61;44.10
66522;SHT31;53349;53.538;8.584;2023-06-22T13:23:55;28.56;44.58
66522;SHT31;53349;53.538;8.584;2023-06-22T13:26:22;28.56;44.43
66522;SHT31;53349;53.538;8.584;2023-06-22T13:28:48;28.56;44.78
66522;SHT31;53349;53.538;8.584;2023-06-22T13:31:14;28.60;44.55
66522;SHT31;53349;53.538;8.584;2023-06-22T13:33:42;28.57;44.68
66522;SHT31;53349;53.538;8.584;2023-06-22T13:36:07;28.63;44.30
66522;SHT31;53349;53.538;8.584;2023-06-22T13:38:35;28.67;44.75
66522;SHT31;53349;53.538;8.584;2023-06-22T13:41:01;28.73;45.11
66522;SHT31;53349;53.538;8.584;2023-06-22T13:43:27;28.77;44.86
66522;SHT31;53349;53.538;8.584;2023-06-22T13:45:53;28.57;45.39
66522;SHT31;53349;53.538;8.584;2023-06-22T13:48:18;28.56;45.73
66522;SHT31;53349;53.538;8.584;2023-06-22T13:50:43;28.42;45.81
66522;SHT31;53349;53.538;8.584;2023-06-22T13:53:09;28.36;45.92
66522;SHT31;53349;53.538;8.584;2023-06-22T13:55:34;28.32;46.24
66522;SHT31;53349;53.538;8.584;2023-06-22T13:58:00;28.37;46.07
66522;SHT31;53349;53.538;8.584;2023-06-22T14:00:27;28.46;46.32
66522;SHT31;53349;53.538;8.584;2023-06-22T14:02:54;28.29;47.17
66522;SHT31;53349;53.538;8.584;2023-06-22T14:05:19;28.31;47.45
66522;SHT31;53349;53.538;8.584;2023-06-22T14:07:45;28.27;47.66
66522;SHT31;53349;53.538;8.584;2023-06-22T14:10:10;28.20;47.52
66522;SHT31;53349;53.538;8.584;2023-06-22T14:12:35;28.20;47.47
66522;SHT31;53349;53.538;8.584;2023-06-22T14:15:01;28.25;47.48
66522;SHT31;53349;53.538;8.584;2023-06-22T14:17:26;28.09;47.63
66522;SHT31;53349;53.538;8.584;2023-06-22T14:19:52;28.02;48.33
66522;SHT31;53349;53.538;8.584;2023-06-22T14:22:19;27.98;48.42
66522;SHT31;53349;53.538;8.584;2023-06-22T14:24:45;27.96;48.62
66522;SHT31;53349;53.538;8.584;2023-06-22T14:27:13;27.99;48.43
66522;SHT31;53349;53.538;8.584;2023-06-22T14:29:52;27.92;48.41
66522;SHT31;53349;53.538;8.584;2023-06-22T14:32:18;27.88;48.69
66522;SHT31;53349;53.538;8.584;2023-06-22T14:34:44;27.65;48.80
66522;SHT31;53349;53.538;8.584;2023-06-22T14:37:11;27.62;49.24
66522;SHT31;53349;53.538;8.584;2023-06-22T14:39:36;27.59;48.85
66522;SHT31;53349;53.538;8.584;2023-06-22T14:42:02;27.41;49.08
66522;SHT31;53349;53.538;8.584;2023-06-22T14:44:27;27.37;49.22
66522;SHT31;53349;53.538;8.584;2023-06-22T14:46:53;27.46;49.40
66522;SHT31;53349;53.538;8.584;2023-06-22T14:49:18;27.48;49.55
66522;SHT31;53349;53.538;8.584;2023-06-22T14:51:43;27.41;49.41
66522;SHT31;53349;53.538;8.584;2023-06-22T14:54:08;27.38;49.36
66522;SHT31;53349;53.538;8.584;2023-06-22T14:56:35;27.30;49.49
66522;SHT31;53349;53.538;8.584;2023-06-22T14:59:04;27.30;49.56
66522;SHT31;53349;53.538;8.584;2023-06-22T15:01:31;27.14;49.54
66522;SHT31;53349;53.538;8.584;2023-06-22T15:03:56;27.10;49.72
66522;SHT31;53349;53.538;8.584;2023-06-22T15:06:22;27.08;49.81
66522;SHT31;53349;53.538;8.584;2023-06-22T15:08:47;27.04;49.72
66522;SHT31;53349;53.538;8.584;2023-06-22T15:11:12;26.89;50.05
66522;SHT31;53349;53.538;8.584;2023-06-22T15:13:41;26.89;50.23
66522;SHT31;53349;53.538;8.584;2023-06-22T15:16:11;26.80;50.50
66522;SHT31;53349;53.538;8.584;2023-06-22T15:18:39;26.82;50.60
66522;SHT31;53349;53.538;8.584;2023-06-22T15:21:04;26.80;50.81
66522;SHT31;53349;53.538;8.584;2023-06-22T15:23:30;26.75;50.93
66522;SHT31;53349;53.538;8.584;2023-06-22T15:25:57;26.82;50.97
66522;SHT31;53349;53.538;8.584;2023-06-22T15:28:23;26.92;51.24
66522;SHT31;53349;53.538;8.584;2023-06-22T15:30:50;26.97;50.27
66522;SHT31;53349;53.538;8.584;2023-06-22T15:33:17;26.97;50.24